createdAt,value
2018-02-10T00:00:13.426Z,39.20
2018-02-10T00:01:13.485Z,40.10
2018-02-10T00:02:13.460Z,40.60
2018-02-10T00:03:13.475Z,39.00
2018-02-10T00:04:13.415Z,40.10
2018-02-10T00:05:13.427Z,39.60
2018-02-10T00:06:13.428Z,38.30
2018-02-10T00:07:13.408Z,39.00
2018-02-10T00:08:13.428Z,37.50
2018-02-10T00:09:13.440Z,39.30
2018-02-10T00:10:13.417Z,39.30
2018-02-10T00:11:13.398Z,38.40
2018-02-10T00:12:13.400Z,39.40
2018-02-10T00:13:13.402Z,39.50
2018-02-10T00:14:13.389Z,39.10
2018-02-10T00:15:13.488Z,39.40
2018-02-10T00:16:13.497Z,37.90
2018-02-10T00:17:13.539Z,38.70
2018-02-10T00:18:13.431Z,37.80
2018-02-10T00:19:13.442Z,37.50
2018-02-10T00:20:13.369Z,38.30
2018-02-10T00:21:13.365Z,35.80
2018-02-10T00:22:13.363Z,36.80
2018-02-10T00:23:13.374Z,39.00
2018-02-10T00:24:13.362Z,37.10
2018-02-10T00:25:13.344Z,36.00
2018-02-10T00:26:13.373Z,36.00
2018-02-10T00:27:13.370Z,37.30
2018-02-10T00:28:13.509Z,36.90
2018-02-10T00:29:13.352Z,37.40
2018-02-10T00:30:13.337Z,38.10
2018-02-10T00:31:13.361Z,37.10
2018-02-10T00:32:13.326Z,36.80
2018-02-10T00:33:13.367Z,37.00
2018-02-10T00:34:13.371Z,36.50
2018-02-10T00:35:13.355Z,38.50
2018-02-10T00:36:13.342Z,36.30
2018-02-10T00:37:13.307Z,36.10
2018-02-10T00:38:13.300Z,36.80
2018-02-10T00:39:13.337Z,35.40
2018-02-10T00:40:13.336Z,36.40
2018-02-10T00:41:13.318Z,36.90
2018-02-10T00:42:13.329Z,38.30
2018-02-10T00:43:13.295Z,34.80
2018-02-10T00:44:13.296Z,38.20
2018-02-10T00:45:13.296Z,36.00
2018-02-10T00:46:13.289Z,37.10
2018-02-10T00:47:13.275Z,37.50
2018-02-10T00:48:13.277Z,36.60
2018-02-10T00:49:13.300Z,36.20
2018-02-10T00:50:13.265Z,37.50
2018-02-10T00:51:13.267Z,36.10
2018-02-10T00:52:13.297Z,35.80
2018-02-10T00:53:13.261Z,36.60
2018-02-10T00:54:13.251Z,36.10
2018-02-10T00:55:13.252Z,35.20
2018-02-10T00:56:13.249Z,34.90
2018-02-10T00:57:13.243Z,34.60
2018-02-10T00:58:13.248Z,33.50
2018-02-10T00:59:13.256Z,35.40
2018-02-10T01:00:13.259Z,35.30
2018-02-10T01:01:13.227Z,34.40
2018-02-10T01:02:13.320Z,35.50
2018-02-10T01:03:13.221Z,35.60
2018-02-10T01:04:13.241Z,34.30
2018-02-10T01:05:13.227Z,34.70
2018-02-10T01:06:13.211Z,34.70
2018-02-10T01:07:13.213Z,34.50
2018-02-10T01:08:13.208Z,34.50
2018-02-10T01:09:13.222Z,33.90
2018-02-10T01:10:13.212Z,34.70
2018-02-10T01:11:13.234Z,33.50
2018-02-10T01:12:13.214Z,32.70
2018-02-10T01:13:13.200Z,33.20
2018-02-10T01:14:13.204Z,32.90
2018-02-10T01:15:13.294Z,33.80
2018-02-10T01:16:13.191Z,32.50
2018-02-10T01:17:13.216Z,33.20
2018-02-10T01:18:13.184Z,32.90
2018-02-10T01:19:13.172Z,32.70
2018-02-10T01:20:13.183Z,33.10
2018-02-10T01:21:13.176Z,34.00
2018-02-10T01:22:13.174Z,33.00
2018-02-10T01:23:13.196Z,33.10
2018-02-10T01:24:13.179Z,32.10
2018-02-10T01:25:13.167Z,33.30
2018-02-10T01:26:13.160Z,32.20
2018-02-10T01:27:13.147Z,32.90
2018-02-10T01:28:13.684Z,33.50
2018-02-10T01:29:13.145Z,33.60
2018-02-10T01:30:13.179Z,32.90
2018-02-10T01:31:13.143Z,32.10
2018-02-10T01:32:13.136Z,33.00
2018-02-10T01:33:13.138Z,33.70
2018-02-10T01:34:13.132Z,32.50
2018-02-10T01:35:13.116Z,33.60
2018-02-10T01:36:13.126Z,32.70
2018-02-10T01:37:13.119Z,32.30
2018-02-10T01:38:13.128Z,32.10
2018-02-10T01:39:13.136Z,31.80
2018-02-10T01:40:13.118Z,31.90
2018-02-10T01:41:13.100Z,32.40
2018-02-10T01:42:13.116Z,32.00
2018-02-10T01:43:13.106Z,32.70
2018-02-10T01:44:13.091Z,32.80
2018-02-10T01:45:13.092Z,32.10
2018-02-10T01:46:13.104Z,33.10
2018-02-10T01:47:13.083Z,32.70
2018-02-10T01:48:13.105Z,32.80
2018-02-10T01:49:13.148Z,32.10
2018-02-10T01:50:13.084Z,31.90
2018-02-10T01:51:13.072Z,31.10
2018-02-10T01:52:13.072Z,30.80
2018-02-10T01:53:13.062Z,32.50
2018-02-10T01:54:13.067Z,31.10
2018-02-10T01:55:13.063Z,30.80
2018-02-10T01:56:13.053Z,31.90
2018-02-10T01:57:13.088Z,30.90
2018-02-10T01:58:13.052Z,30.80
2018-02-10T01:59:13.065Z,31.90
2018-02-10T02:00:13.044Z,31.60
2018-02-10T02:01:13.072Z,31.60
2018-02-10T02:02:13.682Z,31.10
2018-02-10T02:03:13.043Z,30.50
2018-02-10T02:04:13.037Z,30.20
2018-02-10T02:05:13.022Z,30.70
2018-02-10T02:06:13.020Z,31.70
2018-02-10T02:07:13.036Z,30.40
2018-02-10T02:08:13.026Z,30.30
2018-02-10T02:09:13.026Z,31.30
2018-02-10T02:10:13.028Z,30.80
2018-02-10T02:11:13.016Z,31.10
2018-02-10T02:12:12.997Z,30.90
2018-02-10T02:13:13.030Z,30.70
2018-02-10T02:14:13.017Z,29.40
2018-02-10T02:15:13.686Z,31.00
2018-02-10T02:16:12.988Z,31.70
2018-02-10T02:17:12.984Z,31.40
2018-02-10T02:18:12.992Z,29.80
2018-02-10T02:19:13.002Z,30.50
2018-02-10T02:20:12.991Z,29.40
2018-02-10T02:21:13.001Z,30.30
2018-02-10T02:22:12.974Z,30.90
2018-02-10T02:23:12.967Z,29.30
2018-02-10T02:24:12.965Z,29.50
2018-02-10T02:25:13.005Z,30.00
2018-02-10T02:26:12.967Z,29.30
2018-02-10T02:27:12.969Z,31.30
2018-02-10T02:28:12.950Z,30.20
2018-02-10T02:29:12.972Z,29.60
2018-02-10T02:30:12.943Z,30.20
2018-02-10T02:31:12.959Z,29.80
2018-02-10T02:32:12.934Z,30.40
2018-02-10T02:33:12.945Z,29.40
2018-02-10T02:34:12.933Z,31.30
2018-02-10T02:35:12.933Z,29.30
2018-02-10T02:36:12.948Z,29.80
2018-02-10T02:37:12.922Z,29.10
2018-02-10T02:38:12.920Z,29.40
2018-02-10T02:39:12.915Z,28.70
2018-02-10T02:40:12.933Z,29.20
2018-02-10T02:41:12.903Z,29.70
2018-02-10T02:42:12.922Z,29.20
2018-02-10T02:43:12.913Z,29.70
2018-02-10T02:44:12.903Z,29.40
2018-02-10T02:45:12.898Z,28.90
2018-02-10T02:46:12.892Z,27.90
2018-02-10T02:47:13.537Z,28.80
2018-02-10T02:48:12.894Z,29.00
2018-02-10T02:49:12.894Z,28.80
2018-02-10T02:50:12.909Z,29.40
2018-02-10T02:51:12.892Z,29.40
2018-02-10T02:52:12.870Z,27.10
2018-02-10T02:53:12.880Z,29.50
2018-02-10T02:54:12.864Z,27.70
2018-02-10T02:55:12.907Z,29.30
2018-02-10T02:56:12.882Z,29.70
2018-02-10T02:57:12.890Z,28.60
2018-02-10T02:58:12.865Z,28.80
2018-02-10T02:59:12.861Z,27.00
2018-02-10T03:00:12.858Z,28.90
2018-02-10T03:01:12.876Z,28.20
2018-02-10T03:02:12.881Z,27.80
2018-02-10T03:03:12.836Z,28.50
2018-02-10T03:04:12.842Z,28.40
2018-02-10T03:05:12.839Z,27.50
2018-02-10T03:06:12.842Z,28.00
2018-02-10T03:07:12.842Z,27.40
2018-02-10T03:08:12.833Z,28.20
2018-02-10T03:09:12.831Z,27.90
2018-02-10T03:10:12.842Z,27.20
2018-02-10T03:11:12.812Z,28.00
2018-02-10T03:12:12.812Z,28.10
2018-02-10T03:13:12.817Z,28.30
2018-02-10T03:14:12.825Z,29.10
2018-02-10T03:15:12.908Z,27.70
2018-02-10T03:16:12.821Z,28.40
2018-02-10T03:17:12.795Z,28.10
2018-02-10T03:18:12.801Z,28.30
2018-02-10T03:19:12.795Z,28.00
2018-02-10T03:20:12.800Z,27.70
2018-02-10T03:21:12.784Z,28.20
2018-02-10T03:22:12.799Z,26.90
2018-02-10T03:23:12.813Z,28.40
2018-02-10T03:24:12.796Z,28.30
2018-02-10T03:25:12.772Z,28.70
2018-02-10T03:26:12.772Z,27.20
2018-02-10T03:27:12.784Z,28.30
2018-02-10T03:28:12.767Z,28.90
2018-02-10T03:29:12.758Z,28.50
2018-02-10T03:30:12.759Z,27.80
2018-02-10T03:31:12.753Z,28.60
2018-02-10T03:32:12.766Z,28.60
2018-02-10T03:33:13.702Z,29.60
2018-02-10T03:34:12.758Z,27.10
2018-02-10T03:35:12.774Z,29.10
2018-02-10T03:36:12.749Z,29.40
2018-02-10T03:37:12.754Z,28.00
2018-02-10T03:38:12.749Z,28.90
2018-02-10T03:39:12.729Z,28.40
2018-02-10T03:40:12.734Z,28.80
2018-02-10T03:41:12.726Z,30.00
2018-02-10T03:42:12.733Z,29.70
2018-02-10T03:43:12.718Z,28.50
2018-02-10T03:44:12.720Z,29.50
2018-02-10T03:45:12.725Z,28.70
2018-02-10T03:46:12.709Z,28.50
2018-02-10T03:47:12.724Z,28.40
2018-02-10T03:48:12.723Z,29.10
2018-02-10T03:49:12.718Z,28.50
2018-02-10T03:50:12.732Z,30.40
2018-02-10T03:51:12.728Z,29.30
2018-02-10T03:52:12.693Z,28.90
2018-02-10T03:53:12.696Z,28.60
2018-02-10T03:54:12.698Z,29.30
2018-02-10T03:55:12.699Z,28.20
2018-02-10T03:56:12.697Z,28.70
2018-02-10T03:57:12.702Z,28.60
2018-02-10T03:58:12.686Z,30.50
2018-02-10T03:59:12.696Z,30.40
2018-02-10T04:00:12.673Z,29.40
2018-02-10T04:01:12.671Z,28.80
2018-02-10T04:02:12.718Z,29.80
2018-02-10T04:03:12.670Z,30.50
2018-02-10T04:04:12.790Z,29.30
2018-02-10T04:05:12.659Z,29.10
2018-02-10T04:06:12.660Z,30.50
2018-02-10T04:07:12.660Z,29.80
2018-02-10T04:08:12.651Z,29.70
2018-02-10T04:09:12.646Z,29.30
2018-02-10T04:10:12.669Z,29.40
2018-02-10T04:11:12.643Z,29.20
2018-02-10T04:12:12.647Z,30.30
2018-02-10T04:13:12.659Z,30.20
2018-02-10T04:14:12.656Z,29.30
2018-02-10T04:15:13.202Z,29.40
2018-02-10T04:16:12.653Z,29.60
2018-02-10T04:17:12.631Z,29.20
2018-02-10T04:18:12.632Z,30.50
2018-02-10T04:19:12.633Z,30.00
2018-02-10T04:20:12.622Z,31.50
2018-02-10T04:21:12.625Z,30.30
2018-02-10T04:22:12.621Z,29.70
2018-02-10T04:23:12.624Z,30.30
2018-02-10T04:24:12.613Z,30.10
2018-02-10T04:25:12.606Z,29.90
2018-02-10T04:26:12.623Z,29.50
2018-02-10T04:27:12.606Z,31.20
2018-02-10T04:28:12.606Z,31.60
2018-02-10T04:29:12.605Z,30.90
2018-02-10T04:30:13.213Z,30.80
2018-02-10T04:31:12.599Z,32.30
2018-02-10T04:32:12.606Z,33.30
2018-02-10T04:33:12.586Z,32.70
2018-02-10T04:34:12.668Z,32.10
2018-02-10T04:35:12.598Z,33.10
2018-02-10T04:36:13.204Z,32.80
2018-02-10T04:37:12.595Z,32.30
2018-02-10T04:38:12.602Z,32.10
2018-02-10T04:39:12.580Z,32.40
2018-02-10T04:40:12.685Z,34.10
2018-02-10T04:41:12.600Z,34.70
2018-02-10T04:42:12.566Z,34.90
2018-02-10T04:43:12.618Z,35.50
2018-02-10T04:44:12.561Z,35.30
2018-02-10T04:45:12.553Z,36.10
2018-02-10T04:46:12.556Z,36.60
2018-02-10T04:47:12.554Z,38.60
2018-02-10T04:48:12.559Z,38.50
2018-02-10T04:49:12.590Z,38.30
2018-02-10T04:50:12.578Z,38.40
2018-02-10T04:51:12.549Z,39.40
2018-02-10T04:52:12.542Z,38.80
2018-02-10T04:53:12.535Z,38.10
2018-02-10T04:54:12.533Z,39.90
2018-02-10T04:55:12.536Z,39.00
2018-02-10T04:56:12.529Z,41.40
2018-02-10T04:57:12.519Z,40.90
2018-02-10T04:58:12.544Z,41.40
2018-02-10T04:59:13.210Z,42.10
2018-02-10T05:00:12.529Z,41.60
2018-02-10T05:01:12.514Z,42.50
2018-02-10T05:02:12.554Z,42.70
2018-02-10T05:03:12.516Z,44.30
2018-02-10T05:04:12.528Z,43.30
2018-02-10T05:05:12.546Z,44.10
2018-02-10T05:06:12.499Z,44.50
2018-02-10T05:07:12.499Z,43.00
2018-02-10T05:08:12.491Z,42.90
2018-02-10T05:09:12.505Z,41.90
2018-02-10T05:10:12.496Z,45.30
2018-02-10T05:11:12.713Z,46.00
2018-02-10T05:12:12.484Z,44.30
2018-02-10T05:13:12.477Z,45.70
2018-02-10T05:14:12.511Z,45.10
2018-02-10T05:15:12.503Z,43.40
2018-02-10T05:16:12.503Z,43.60
2018-02-10T05:17:12.468Z,45.20
2018-02-10T05:18:12.466Z,45.90
2018-02-10T05:19:12.487Z,48.00
2018-02-10T05:20:12.489Z,44.50
2018-02-10T05:21:12.488Z,45.30
2018-02-10T05:22:12.485Z,45.00
2018-02-10T05:23:12.458Z,45.40
2018-02-10T05:24:12.453Z,45.70
2018-02-10T05:25:12.456Z,46.90
2018-02-10T05:26:12.455Z,47.10
2018-02-10T05:27:12.455Z,48.40
2018-02-10T05:28:12.447Z,47.50
2018-02-10T05:29:12.448Z,48.20
2018-02-10T05:30:12.431Z,49.10
2018-02-10T05:31:12.497Z,48.40
2018-02-10T05:32:12.434Z,48.30
2018-02-10T05:33:12.479Z,49.30
2018-02-10T05:34:12.435Z,48.70
2018-02-10T05:35:12.421Z,50.50
2018-02-10T05:36:12.478Z,52.70
2018-02-10T05:37:12.467Z,52.00
2018-02-10T05:38:12.417Z,52.60
2018-02-10T05:39:12.485Z,50.00
2018-02-10T05:40:12.424Z,53.80
2018-02-10T05:41:12.415Z,51.70
2018-02-10T05:42:12.412Z,51.70
2018-02-10T05:43:13.214Z,53.00
2018-02-10T05:44:12.428Z,52.50
2018-02-10T05:45:12.412Z,50.20
2018-02-10T05:46:12.491Z,53.90
2018-02-10T05:47:12.398Z,51.30
2018-02-10T05:48:12.396Z,56.50
2018-02-10T05:49:12.405Z,55.30
2018-02-10T05:50:12.389Z,54.50
2018-02-10T05:51:12.393Z,53.70
2018-02-10T05:52:12.391Z,53.50
2018-02-10T05:53:12.373Z,56.50
2018-02-10T05:54:12.397Z,58.60
2018-02-10T05:55:12.362Z,55.60
2018-02-10T05:56:12.386Z,55.60
2018-02-10T05:57:12.370Z,56.70
2018-02-10T05:58:12.380Z,54.60
2018-02-10T05:59:13.219Z,54.90
2018-02-10T06:00:12.380Z,56.30
2018-02-10T06:01:12.362Z,55.60
2018-02-10T06:02:12.362Z,55.80
2018-02-10T06:03:12.354Z,56.90
2018-02-10T06:04:12.349Z,56.50
2018-02-10T06:05:12.360Z,55.60
2018-02-10T06:06:12.357Z,52.00
2018-02-10T06:07:12.351Z,53.40
2018-02-10T06:08:12.344Z,55.00
2018-02-10T06:09:12.353Z,52.80
2018-02-10T06:10:12.336Z,55.20
2018-02-10T06:11:12.332Z,55.50
2018-02-10T06:12:12.329Z,55.50
2018-02-10T06:13:12.322Z,55.80
2018-02-10T06:14:12.320Z,55.20
2018-02-10T06:15:12.320Z,52.60
2018-02-10T06:16:12.340Z,55.20
2018-02-10T06:17:12.325Z,56.30
2018-02-10T06:18:12.309Z,53.20
2018-02-10T06:19:12.331Z,51.30
2018-02-10T06:20:12.333Z,55.00
2018-02-10T06:21:12.372Z,55.40
2018-02-10T06:22:12.330Z,56.70
2018-02-10T06:23:12.298Z,56.80
2018-02-10T06:24:12.309Z,56.40
2018-02-10T06:25:12.289Z,58.00
2018-02-10T06:26:12.302Z,56.40
2018-02-10T06:27:12.296Z,60.10
2018-02-10T06:28:12.286Z,58.20
2018-02-10T06:29:12.294Z,55.70
2018-02-10T06:30:12.295Z,57.20
2018-02-10T06:31:12.292Z,57.30
2018-02-10T06:32:12.293Z,58.70
2018-02-10T06:33:12.296Z,59.80
2018-02-10T06:34:12.277Z,58.40
2018-02-10T06:35:12.269Z,59.70
2018-02-10T06:36:12.264Z,59.70
2018-02-10T06:37:12.282Z,60.60
2018-02-10T06:38:12.287Z,59.20
2018-02-10T06:39:12.251Z,60.20
2018-02-10T06:40:12.259Z,64.40
2018-02-10T06:41:12.261Z,62.80
2018-02-10T06:42:12.248Z,62.10
2018-02-10T06:43:12.265Z,61.60
2018-02-10T06:44:12.240Z,63.10
2018-02-10T06:45:12.236Z,63.20
2018-02-10T06:46:12.359Z,64.60
2018-02-10T06:47:12.281Z,65.20
2018-02-10T06:48:12.252Z,63.80
2018-02-10T06:49:12.230Z,63.50
2018-02-10T06:50:12.257Z,65.20
2018-02-10T06:51:12.246Z,67.30
2018-02-10T06:52:12.230Z,64.60
2018-02-10T06:53:12.234Z,68.00
2018-02-10T06:54:12.216Z,70.20
2018-02-10T06:55:12.216Z,67.00
2018-02-10T06:56:12.233Z,72.00
2018-02-10T06:57:12.215Z,67.10
2018-02-10T06:58:12.222Z,70.70
2018-02-10T06:59:12.211Z,71.20
2018-02-10T07:00:12.229Z,71.00
2018-02-10T07:01:12.200Z,69.50
2018-02-10T07:02:12.198Z,69.60
2018-02-10T07:03:12.205Z,69.40
2018-02-10T07:04:12.742Z,71.20
2018-02-10T07:05:12.193Z,72.00
2018-02-10T07:06:12.193Z,71.40
2018-02-10T07:07:12.187Z,72.40
2018-02-10T07:08:12.201Z,69.00
2018-02-10T07:09:12.209Z,71.40
2018-02-10T07:10:12.181Z,71.90
2018-02-10T07:11:12.193Z,74.50
2018-02-10T07:12:12.182Z,73.30
2018-02-10T07:13:12.166Z,72.40
2018-02-10T07:14:12.166Z,74.90
2018-02-10T07:15:12.191Z,70.80
2018-02-10T07:16:12.162Z,70.50
2018-02-10T07:17:12.739Z,71.10
2018-02-10T07:18:12.181Z,72.50
2018-02-10T07:19:12.246Z,70.60
2018-02-10T07:20:12.161Z,69.00
2018-02-10T07:21:12.151Z,70.00
2018-02-10T07:22:12.150Z,68.40
2018-02-10T07:23:12.153Z,71.20
2018-02-10T07:24:12.161Z,73.20
2018-02-10T07:25:12.163Z,72.60
2018-02-10T07:26:12.162Z,68.40
2018-02-10T07:27:12.132Z,67.10
2018-02-10T07:28:12.123Z,69.30
2018-02-10T07:29:12.148Z,66.30
2018-02-10T07:30:12.140Z,71.80
2018-02-10T07:31:12.152Z,68.80
2018-02-10T07:32:12.183Z,70.80
2018-02-10T07:33:12.188Z,69.10
2018-02-10T07:34:12.115Z,70.20
2018-02-10T07:35:12.124Z,70.90
2018-02-10T07:36:12.128Z,68.50
2018-02-10T07:37:12.100Z,66.70
2018-02-10T07:38:12.167Z,67.00
2018-02-10T07:39:12.118Z,71.00
2018-02-10T07:40:12.124Z,69.40
2018-02-10T07:41:12.109Z,70.70
2018-02-10T07:42:12.098Z,70.30
2018-02-10T07:43:12.092Z,69.60
2018-02-10T07:44:12.119Z,67.90
2018-02-10T07:45:12.086Z,69.40
2018-02-10T07:46:12.144Z,68.10
2018-02-10T07:47:12.116Z,67.70
2018-02-10T07:48:12.118Z,64.80
2018-02-10T07:49:12.093Z,67.30
2018-02-10T07:50:12.075Z,70.40
2018-02-10T07:51:12.734Z,69.90
2018-02-10T07:52:12.099Z,67.00
2018-02-10T07:53:12.083Z,67.60
2018-02-10T07:54:12.073Z,66.70
2018-02-10T07:55:12.064Z,69.00
2018-02-10T07:56:12.057Z,69.50
2018-02-10T07:57:12.052Z,69.40
2018-02-10T07:58:12.056Z,72.90
2018-02-10T07:59:12.066Z,69.20
2018-02-10T08:00:12.061Z,69.40
2018-02-10T08:01:12.102Z,72.70
2018-02-10T08:02:12.051Z,70.50
2018-02-10T08:03:12.079Z,71.30
2018-02-10T08:04:12.733Z,69.20
2018-02-10T08:05:12.045Z,70.50
2018-02-10T08:06:12.042Z,71.50
2018-02-10T08:07:12.034Z,70.60
2018-02-10T08:08:12.038Z,69.80
2018-02-10T08:09:12.031Z,72.50
2018-02-10T08:10:12.031Z,69.70
2018-02-10T08:11:12.041Z,70.80
2018-02-10T08:12:12.028Z,76.00
2018-02-10T08:13:12.014Z,74.40
2018-02-10T08:14:12.022Z,73.40
2018-02-10T08:15:12.042Z,70.50
2018-02-10T08:16:12.011Z,72.80
2018-02-10T08:17:12.097Z,72.90
2018-02-10T08:18:12.002Z,72.10
2018-02-10T08:19:12.019Z,72.90
2018-02-10T08:20:12.024Z,72.20
2018-02-10T08:21:12.027Z,69.80
2018-02-10T08:22:12.034Z,68.40
2018-02-10T08:23:12.008Z,69.20
2018-02-10T08:24:12.014Z,69.30
2018-02-10T08:25:12.031Z,71.90
2018-02-10T08:26:11.997Z,72.20
2018-02-10T08:27:11.994Z,70.20
2018-02-10T08:28:11.982Z,67.70
2018-02-10T08:29:12.022Z,70.60
2018-02-10T08:30:11.986Z,70.90
2018-02-10T08:31:12.030Z,69.60
2018-02-10T08:32:11.981Z,68.10
2018-02-10T08:33:11.976Z,67.80
2018-02-10T08:34:11.969Z,71.40
2018-02-10T08:35:11.990Z,68.30
2018-02-10T08:36:11.996Z,70.70
2018-02-10T08:37:11.981Z,70.00
2018-02-10T08:38:11.966Z,68.10
2018-02-10T08:39:11.978Z,70.00
2018-02-10T08:40:11.959Z,70.30
2018-02-10T08:41:11.968Z,71.40
2018-02-10T08:42:11.952Z,67.50
2018-02-10T08:43:11.970Z,68.00
2018-02-10T08:44:11.961Z,66.30
2018-02-10T08:45:11.950Z,66.40
2018-02-10T08:46:11.942Z,63.90
2018-02-10T08:47:11.950Z,65.40
2018-02-10T08:48:11.937Z,65.80
2018-02-10T08:49:11.961Z,66.30
2018-02-10T08:50:11.943Z,66.70
2018-02-10T08:51:12.739Z,67.90
2018-02-10T08:52:11.927Z,70.30
2018-02-10T08:53:11.932Z,67.90
2018-02-10T08:54:11.955Z,67.60
2018-02-10T08:55:11.919Z,65.70
2018-02-10T08:56:11.926Z,64.30
2018-02-10T08:57:11.928Z,64.10
2018-02-10T08:58:11.919Z,64.90
2018-02-10T08:59:11.916Z,64.20
2018-02-10T09:00:11.912Z,65.10
2018-02-10T09:01:11.984Z,63.90
2018-02-10T09:02:11.948Z,62.50
2018-02-10T09:03:11.906Z,62.30
2018-02-10T09:04:11.930Z,65.10
2018-02-10T09:05:11.894Z,62.90
2018-02-10T09:06:11.922Z,60.80
2018-02-10T09:07:11.897Z,61.00
2018-02-10T09:08:11.893Z,61.30
2018-02-10T09:09:11.932Z,60.50
2018-02-10T09:10:11.890Z,58.50
2018-02-10T09:11:11.927Z,59.30
2018-02-10T09:12:11.881Z,60.80
2018-02-10T09:13:11.880Z,60.70
2018-02-10T09:14:11.900Z,58.60
2018-02-10T09:15:11.919Z,59.90
2018-02-10T09:16:11.878Z,60.60
2018-02-10T09:17:11.883Z,58.90
2018-02-10T09:18:11.892Z,57.30
2018-02-10T09:19:11.868Z,58.90
2018-02-10T09:20:11.872Z,58.90
2018-02-10T09:21:11.893Z,56.60
2018-02-10T09:22:11.886Z,58.50
2018-02-10T09:23:11.878Z,56.10
2018-02-10T09:24:11.871Z,55.70
2018-02-10T09:25:11.863Z,54.40
2018-02-10T09:26:11.857Z,53.80
2018-02-10T09:27:11.855Z,54.40
2018-02-10T09:28:11.856Z,55.00
2018-02-10T09:29:12.744Z,54.20
2018-02-10T09:30:11.845Z,52.50
2018-02-10T09:31:11.869Z,52.50
2018-02-10T09:32:11.853Z,53.50
2018-02-10T09:33:11.859Z,52.10
2018-02-10T09:34:11.846Z,53.50
2018-02-10T09:35:11.835Z,53.20
2018-02-10T09:36:11.835Z,50.50
2018-02-10T09:37:11.830Z,52.70
2018-02-10T09:38:11.913Z,52.90
2018-02-10T09:39:11.846Z,50.90
2018-02-10T09:40:11.821Z,51.80
2018-02-10T09:41:11.819Z,53.30
2018-02-10T09:42:11.827Z,53.00
2018-02-10T09:43:11.824Z,53.80
2018-02-10T09:44:11.826Z,50.60
2018-02-10T09:45:11.844Z,52.70
2018-02-10T09:46:11.819Z,52.20
2018-02-10T09:47:11.826Z,50.00
2018-02-10T09:48:11.812Z,49.80
2018-02-10T09:49:11.827Z,50.80
2018-02-10T09:50:11.818Z,49.70
2018-02-10T09:51:12.753Z,50.30
2018-02-10T09:52:11.838Z,49.30
2018-02-10T09:53:11.802Z,51.40
2018-02-10T09:54:11.797Z,51.40
2018-02-10T09:55:11.801Z,48.80
2018-02-10T09:56:11.823Z,50.70
2018-02-10T09:57:11.802Z,49.90
2018-02-10T09:58:11.917Z,49.30
2018-02-10T09:59:11.786Z,50.20
2018-02-10T10:00:11.790Z,50.10
2018-02-10T10:01:11.789Z,49.00
2018-02-10T10:02:11.789Z,48.90
2018-02-10T10:03:11.783Z,50.90
2018-02-10T10:04:12.749Z,50.90
2018-02-10T10:05:11.816Z,51.80
2018-02-10T10:06:11.787Z,50.20
2018-02-10T10:07:11.788Z,51.20
2018-02-10T10:08:11.776Z,50.10
2018-02-10T10:09:11.797Z,50.20
2018-02-10T10:10:11.770Z,49.50
2018-02-10T10:11:11.801Z,50.60
2018-02-10T10:12:11.774Z,50.40
2018-02-10T10:13:11.821Z,48.50
2018-02-10T10:14:11.776Z,49.40
2018-02-10T10:15:11.759Z,50.10
2018-02-10T10:16:11.772Z,52.00
2018-02-10T10:17:11.868Z,51.40
2018-02-10T10:18:11.773Z,51.20
2018-02-10T10:19:11.758Z,50.20
2018-02-10T10:20:11.754Z,50.80
2018-02-10T10:21:11.796Z,51.90
2018-02-10T10:22:11.764Z,51.00
2018-02-10T10:23:11.749Z,51.20
2018-02-10T10:24:11.844Z,53.00
2018-02-10T10:25:11.770Z,52.30
2018-02-10T10:26:11.741Z,50.90
2018-02-10T10:27:11.751Z,53.50
2018-02-10T10:28:11.738Z,50.90
2018-02-10T10:29:11.756Z,52.30
2018-02-10T10:30:11.727Z,52.40
2018-02-10T10:31:11.730Z,53.90
2018-02-10T10:32:11.725Z,53.70
2018-02-10T10:33:11.744Z,54.90
2018-02-10T10:34:11.773Z,53.30
2018-02-10T10:35:11.821Z,52.50
2018-02-10T10:36:11.722Z,53.90
2018-02-10T10:37:11.751Z,52.80
2018-02-10T10:38:11.719Z,51.60
2018-02-10T10:39:11.723Z,52.70
2018-02-10T10:40:11.729Z,54.70
2018-02-10T10:41:11.703Z,53.20
2018-02-10T10:42:11.708Z,54.10
2018-02-10T10:43:11.720Z,55.50
2018-02-10T10:44:11.709Z,52.90
2018-02-10T10:45:11.704Z,54.50
2018-02-10T10:46:11.712Z,56.20
2018-02-10T10:47:11.730Z,53.40
2018-02-10T10:48:11.696Z,53.30
2018-02-10T10:49:11.696Z,55.00
2018-02-10T10:50:11.704Z,53.40
2018-02-10T10:51:11.705Z,54.50
2018-02-10T10:52:11.715Z,54.80
2018-02-10T10:53:11.697Z,56.50
2018-02-10T10:54:11.756Z,54.00
2018-02-10T10:55:11.688Z,55.50
2018-02-10T10:56:11.680Z,54.80
2018-02-10T10:57:11.682Z,54.40
2018-02-10T10:58:11.704Z,54.30
2018-02-10T10:59:11.667Z,54.50
2018-02-10T11:00:11.690Z,57.90
2018-02-10T11:01:11.677Z,53.60
2018-02-10T11:02:11.681Z,53.70
2018-02-10T11:03:11.674Z,54.60
2018-02-10T11:04:11.672Z,53.80
2018-02-10T11:05:11.672Z,56.20
2018-02-10T11:06:11.662Z,55.10
2018-02-10T11:07:11.659Z,53.30
2018-02-10T11:08:11.665Z,56.70
2018-02-10T11:09:11.670Z,55.40
2018-02-10T11:10:11.668Z,55.70
2018-02-10T11:11:11.649Z,57.60
2018-02-10T11:12:11.668Z,56.70
2018-02-10T11:13:11.645Z,57.50
2018-02-10T11:14:11.662Z,56.60
2018-02-10T11:15:11.651Z,57.30
2018-02-10T11:16:11.663Z,58.60
2018-02-10T11:17:11.653Z,60.70
2018-02-10T11:18:11.637Z,58.70
2018-02-10T11:19:12.260Z,58.90
2018-02-10T11:20:11.632Z,58.50
2018-02-10T11:21:11.652Z,60.00
2018-02-10T11:22:11.697Z,61.00
2018-02-10T11:23:11.640Z,64.10
2018-02-10T11:24:11.622Z,64.50
2018-02-10T11:25:11.649Z,62.70
2018-02-10T11:26:11.638Z,64.60
2018-02-10T11:27:11.647Z,61.90
2018-02-10T11:28:11.643Z,63.20
2018-02-10T11:29:11.613Z,61.70
2018-02-10T11:30:11.613Z,62.80
2018-02-10T11:31:11.619Z,62.30
2018-02-10T11:32:11.614Z,65.20
2018-02-10T11:33:11.605Z,63.20
2018-02-10T11:34:11.613Z,65.20
2018-02-10T11:35:11.657Z,66.40
2018-02-10T11:36:11.616Z,64.60
2018-02-10T11:37:11.606Z,63.20
2018-02-10T11:38:11.599Z,64.60
2018-02-10T11:39:11.607Z,66.20
2018-02-10T11:40:11.715Z,64.90
2018-02-10T11:41:11.590Z,68.00
2018-02-10T11:42:11.598Z,67.70
2018-02-10T11:43:11.591Z,68.90
2018-02-10T11:44:11.595Z,68.30
2018-02-10T11:45:11.609Z,65.10
2018-02-10T11:46:11.614Z,68.00
2018-02-10T11:47:11.612Z,66.30
2018-02-10T11:48:11.599Z,65.80
2018-02-10T11:49:11.602Z,64.00
2018-02-10T11:50:11.584Z,64.60
2018-02-10T11:51:11.626Z,65.30
2018-02-10T11:52:11.579Z,65.10
2018-02-10T11:53:11.592Z,64.00
2018-02-10T11:54:11.573Z,64.10
2018-02-10T11:55:11.578Z,62.30
2018-02-10T11:56:11.577Z,63.70
2018-02-10T11:57:11.582Z,65.90
2018-02-10T11:58:11.603Z,66.80
2018-02-10T11:59:11.575Z,63.80
2018-02-10T12:00:11.565Z,65.70
2018-02-10T12:01:11.565Z,66.80
2018-02-10T12:02:11.562Z,67.90
2018-02-10T12:03:11.574Z,66.30
2018-02-10T12:04:11.566Z,68.90
2018-02-10T12:05:11.576Z,68.80
2018-02-10T12:06:11.570Z,64.30
2018-02-10T12:07:11.560Z,66.30
2018-02-10T12:08:11.568Z,69.90
2018-02-10T12:09:11.563Z,67.30
2018-02-10T12:10:11.613Z,65.90
2018-02-10T12:11:11.562Z,66.00
2018-02-10T12:12:11.573Z,69.10
2018-02-10T12:13:11.566Z,66.00
2018-02-10T12:14:11.541Z,67.40
2018-02-10T12:15:11.541Z,67.40
2018-02-10T12:16:11.543Z,66.80
2018-02-10T12:17:11.556Z,68.40
2018-02-10T12:18:11.545Z,64.10
2018-02-10T12:19:11.561Z,67.30
2018-02-10T12:20:11.553Z,65.80
2018-02-10T12:21:11.553Z,63.70
2018-02-10T12:22:11.542Z,63.30
2018-02-10T12:23:11.543Z,64.50
2018-02-10T12:24:11.549Z,59.30
2018-02-10T12:25:11.525Z,59.70
2018-02-10T12:26:11.517Z,59.10
2018-02-10T12:27:11.655Z,59.00
2018-02-10T12:28:11.544Z,59.90
2018-02-10T12:29:11.533Z,61.90
2018-02-10T12:30:11.534Z,60.60
2018-02-10T12:31:11.509Z,60.10
2018-02-10T12:32:11.536Z,62.40
2018-02-10T12:33:11.544Z,62.40
2018-02-10T12:34:11.515Z,62.70
2018-02-10T12:35:11.534Z,63.10
2018-02-10T12:36:11.528Z,63.80
2018-02-10T12:37:11.506Z,65.50
2018-02-10T12:38:11.496Z,67.60
2018-02-10T12:39:11.501Z,64.90
2018-02-10T12:40:11.497Z,66.10
2018-02-10T12:41:11.499Z,67.70
2018-02-10T12:42:11.506Z,64.60
2018-02-10T12:43:11.500Z,67.70
2018-02-10T12:44:11.511Z,66.00
2018-02-10T12:45:11.496Z,67.20
2018-02-10T12:46:11.493Z,66.10
2018-02-10T12:47:11.527Z,66.70
2018-02-10T12:48:11.512Z,63.80
2018-02-10T12:49:11.502Z,67.00
2018-02-10T12:50:11.487Z,68.20
2018-02-10T12:51:11.482Z,68.30
2018-02-10T12:52:11.493Z,66.10